createdAt,value
2023-05-21T00:01:42.852Z,19.81
2023-05-21T00:04:09.810Z,19.68
2023-05-21T00:06:37.072Z,19.79
2023-05-21T00:09:06.362Z,19.79
2023-05-21T00:11:33.453Z,19.85
2023-05-21T00:14:00.334Z,19.78
2023-05-21T00:16:27.308Z,19.69
2023-05-21T00:18:58.210Z,19.67
2023-05-21T00:21:26.029Z,19.64
2023-05-21T00:23:56.886Z,19.62
2023-05-21T00:26:24.217Z,19.52
2023-05-21T00:28:51.150Z,19.58
2023-05-21T00:31:19.062Z,19.55
2023-05-21T00:33:46.043Z,19.56
2023-05-21T00:36:14.544Z,19.52
2023-05-21T00:38:46.120Z,19.37
2023-05-21T00:41:13.633Z,19.42
2023-05-21T00:43:40.616Z,19.29
2023-05-21T00:46:08.719Z,19.38
2023-05-21T00:48:35.675Z,19.31
2023-05-21T00:51:02.633Z,19.30
2023-05-21T00:53:30.136Z,19.23
2023-05-21T00:55:57.428Z,19.28
2023-05-21T00:58:24.356Z,19.28
2023-05-21T01:00:55.691Z,19.26
2023-05-21T01:03:26.304Z,19.23
2023-05-21T01:05:53.423Z,19.14
2023-05-21T01:08:21.768Z,19.11
2023-05-21T01:10:49.905Z,19.15
2023-05-21T01:13:17.763Z,19.19
2023-05-21T01:15:45.493Z,19.21
2023-05-21T01:18:14.283Z,19.01
2023-05-21T01:20:42.564Z,19.07
2023-05-21T01:23:09.595Z,19.03
2023-05-21T01:25:36.897Z,19.04
2023-05-21T01:28:04.088Z,19.03
2023-05-21T01:30:31.263Z,19.16
2023-05-21T01:33:06.249Z,19.05
2023-05-21T01:35:39.406Z,19.10
2023-05-21T01:38:19.829Z,19.19
2023-05-21T01:40:53.390Z,19.18
2023-05-21T01:43:22.673Z,19.13
2023-05-21T01:45:54.796Z,19.13
2023-05-21T01:48:25.770Z,18.97
2023-05-21T01:50:55.233Z,18.91
2023-05-21T01:53:22.399Z,18.81
2023-05-21T01:55:49.388Z,18.79
2023-05-21T01:58:16.895Z,18.85
2023-05-21T02:00:45.384Z,18.83
2023-05-21T02:03:15.065Z,18.78
2023-05-21T02:05:42.104Z,18.88
2023-05-21T02:08:09.204Z,18.80
2023-05-21T02:10:36.798Z,18.85
2023-05-21T02:13:03.769Z,18.89
2023-05-21T02:15:30.654Z,18.71
2023-05-21T02:17:58.397Z,18.86
2023-05-21T02:20:25.476Z,18.72
2023-05-21T02:22:52.320Z,18.77
2023-05-21T02:25:19.903Z,18.62
2023-05-21T02:27:46.957Z,18.64
2023-05-21T02:30:16.018Z,18.69
2023-05-21T02:32:43.713Z,18.62
2023-05-21T02:35:13.058Z,18.58
2023-05-21T02:37:40.755Z,18.44
2023-05-21T02:40:10.133Z,18.49
2023-05-21T02:42:39.736Z,18.42
2023-05-21T02:45:11.869Z,18.31
2023-05-21T02:47:39.163Z,18.25
2023-05-21T02:50:08.494Z,18.18
2023-05-21T02:52:35.583Z,18.15
2023-05-21T02:55:02.474Z,18.12
2023-05-21T02:57:29.365Z,18.14
2023-05-21T02:59:56.353Z,18.11
2023-05-21T03:02:23.838Z,18.08
2023-05-21T03:04:51.490Z,18.07
2023-05-21T03:07:19.825Z,18.06
2023-05-21T03:09:46.940Z,18.03
2023-05-21T03:12:13.936Z,17.96
2023-05-21T03:14:44.136Z,18.08
2023-05-21T03:17:13.785Z,18.06
2023-05-21T03:19:41.862Z,18.06
2023-05-21T03:22:09.012Z,18.19
2023-05-21T03:24:36.743Z,18.11
2023-05-21T03:27:06.344Z,18.17
2023-05-21T03:29:33.926Z,18.18
2023-05-21T03:32:01.990Z,18.04
2023-05-21T03:34:29.001Z,18.15
2023-05-21T03:36:55.881Z,18.16
2023-05-21T03:39:22.822Z,18.16
2023-05-21T03:41:49.715Z,17.90
2023-05-21T03:44:16.645Z,17.83
2023-05-21T03:46:45.414Z,17.82
2023-05-21T03:49:12.384Z,17.92
2023-05-21T03:51:39.576Z,17.98
2023-05-21T03:54:06.542Z,17.98
2023-05-21T03:56:33.472Z,17.84
2023-05-21T03:59:01.313Z,17.85
2023-05-21T04:01:28.395Z,17.87
2023-05-21T04:03:55.692Z,17.83
2023-05-21T04:06:22.786Z,17.90
2023-05-21T04:08:50.095Z,17.93
2023-05-21T04:11:17.086Z,18.00
2023-05-21T04:13:43.929Z,17.91
2023-05-21T04:16:10.934Z,17.87
2023-05-21T04:18:38.012Z,18.01
2023-05-21T04:21:05.132Z,18.05
2023-05-21T04:23:32.038Z,18.11
2023-05-21T04:25:58.931Z,18.22
2023-05-21T04:28:28.773Z,18.23
2023-05-21T04:30:56.518Z,18.23
2023-05-21T04:33:24.560Z,18.19
2023-05-21T04:35:52.008Z,18.08
2023-05-21T04:38:20.692Z,18.34
2023-05-21T04:40:51.767Z,18.52
2023-05-21T04:43:26.774Z,18.66
2023-05-21T04:45:56.869Z,18.78
2023-05-21T04:48:24.836Z,18.83
2023-05-21T04:50:53.521Z,18.95
2023-05-21T04:53:20.693Z,18.83
2023-05-21T04:55:48.054Z,18.89
2023-05-21T04:58:17.778Z,19.15
2023-05-21T05:00:46.925Z,19.19
2023-05-21T05:03:14.499Z,19.28
2023-05-21T05:05:41.931Z,19.35
2023-05-21T05:08:08.885Z,19.29
2023-05-21T05:10:36.256Z,19.49
2023-05-21T05:13:03.607Z,19.60
2023-05-21T05:15:30.567Z,19.63
2023-05-21T05:17:57.499Z,19.55
2023-05-21T05:20:24.344Z,19.70
2023-05-21T05:22:51.290Z,19.77
2023-05-21T05:25:18.437Z,19.93
2023-05-21T05:27:45.288Z,20.12
2023-05-21T05:30:12.584Z,20.24
2023-05-21T05:32:39.453Z,20.23
2023-05-21T05:35:07.546Z,20.27
2023-05-21T05:37:34.378Z,20.26
2023-05-21T05:40:01.252Z,20.51
2023-05-21T05:42:28.252Z,20.54
2023-05-21T05:44:55.115Z,20.55
2023-05-21T05:47:22.086Z,20.67
2023-05-21T05:49:49.111Z,20.66
2023-05-21T05:52:16.189Z,20.53
2023-05-21T05:54:43.054Z,20.81
2023-05-21T05:57:09.902Z,20.64
2023-05-21T05:59:36.978Z,20.67
2023-05-21T06:02:03.993Z,20.80
2023-05-21T06:04:30.982Z,21.04
2023-05-21T06:06:58.440Z,21.01
2023-05-21T06:09:25.422Z,21.08
2023-05-21T06:11:52.411Z,20.86
2023-05-21T06:14:19.270Z,21.27
2023-05-21T06:16:46.166Z,21.23
2023-05-21T06:19:13.308Z,21.63
2023-05-21T06:21:40.198Z,21.49
2023-05-21T06:24:07.269Z,21.81
2023-05-21T06:26:34.178Z,21.82
2023-05-21T06:29:01.154Z,21.72
2023-05-21T06:31:28.039Z,21.89
2023-05-21T06:33:55.047Z,22.03
2023-05-21T06:36:22.139Z,22.20
2023-05-21T06:38:49.105Z,22.27
2023-05-21T06:41:15.970Z,22.04
2023-05-21T06:43:42.840Z,22.28
2023-05-21T06:46:09.729Z,22.57
2023-05-21T06:48:36.642Z,22.56
2023-05-21T06:51:03.543Z,22.07
2023-05-21T06:53:30.506Z,22.74
2023-05-21T06:55:57.445Z,22.36
2023-05-21T06:58:24.432Z,22.06
2023-05-21T07:00:51.303Z,22.68
2023-05-21T07:03:18.348Z,22.62
2023-05-21T07:05:45.298Z,22.88
2023-05-21T07:08:12.417Z,23.50
2023-05-21T07:10:39.319Z,23.66
2023-05-21T07:13:06.189Z,23.62
2023-05-21T07:15:33.131Z,23.54
2023-05-21T07:18:00.169Z,23.97
2023-05-21T07:20:27.057Z,24.02
2023-05-21T07:22:53.900Z,24.48
2023-05-21T07:25:20.861Z,24.22
2023-05-21T07:27:47.704Z,24.11
2023-05-21T07:30:15.161Z,24.14
2023-05-21T07:32:42.387Z,23.95
2023-05-21T07:35:09.665Z,24.07
2023-05-21T07:37:36.623Z,24.09
2023-05-21T07:40:07.715Z,23.87
2023-05-21T07:42:35.391Z,24.44
2023-05-21T07:45:02.422Z,23.97
2023-05-21T07:47:29.350Z,23.80
2023-05-21T07:49:56.231Z,24.39
2023-05-21T07:52:23.151Z,24.74
2023-05-21T07:54:50.093Z,24.73
2023-05-21T07:57:17.047Z,24.47
2023-05-21T07:59:43.918Z,24.59
2023-05-21T08:02:10.985Z,24.36
2023-05-21T08:04:40.925Z,24.69
2023-05-21T08:07:09.677Z,24.52
2023-05-21T08:09:36.814Z,24.58
2023-05-21T08:12:04.056Z,24.93
2023-05-21T08:14:31.194Z,24.74
2023-05-21T08:16:58.379Z,24.98
2023-05-21T08:19:25.395Z,24.86
2023-05-21T08:21:53.104Z,24.88
2023-05-21T08:24:20.284Z,24.86
2023-05-21T08:26:47.511Z,25.25
2023-05-21T08:29:14.408Z,25.58
2023-05-21T08:31:41.523Z,25.67
2023-05-21T08:34:08.463Z,25.65
2023-05-21T08:36:36.009Z,25.86
2023-05-21T08:39:02.905Z,25.90
2023-05-21T08:41:31.372Z,25.45
2023-05-21T08:44:02.706Z,25.68
2023-05-21T08:46:36.330Z,25.74
2023-05-21T08:49:03.930Z,25.90
2023-05-21T08:51:31.576Z,25.81
2023-05-21T08:54:01.759Z,25.94
2023-05-21T08:56:31.704Z,25.59
2023-05-21T08:58:59.516Z,25.81
2023-05-21T09:01:26.985Z,26.24
2023-05-21T09:04:04.765Z,26.36
2023-05-21T09:06:35.662Z,26.15
2023-05-21T09:09:18.713Z,26.73
2023-05-21T09:11:47.478Z,27.14
2023-05-21T09:14:15.796Z,27.27
2023-05-21T09:16:42.774Z,27.30
2023-05-21T09:19:09.720Z,27.13
2023-05-21T09:21:36.813Z,27.54
2023-05-21T09:24:04.410Z,27.67
2023-05-21T09:26:31.402Z,27.96
2023-05-21T09:29:01.028Z,27.96
2023-05-21T09:31:29.594Z,27.96
2023-05-21T09:33:56.622Z,28.12
2023-05-21T09:36:24.086Z,27.68
2023-05-21T09:38:52.081Z,27.75
2023-05-21T09:41:22.213Z,27.81
2023-05-21T09:43:49.617Z,27.41
2023-05-21T09:46:20.767Z,27.27
2023-05-21T09:48:47.698Z,27.28
2023-05-21T09:51:16.522Z,27.91
2023-05-21T09:53:54.657Z,27.86
2023-05-21T09:56:26.743Z,27.67
2023-05-21T09:59:00.393Z,27.45
2023-05-21T10:01:28.783Z,27.99
2023-05-21T10:03:58.240Z,28.27
2023-05-21T10:06:31.057Z,28.11
2023-05-21T10:09:04.650Z,28.53
2023-05-21T10:11:33.893Z,29.08
2023-05-21T10:14:09.871Z,28.52
2023-05-21T10:16:37.667Z,28.29
2023-05-21T10:19:06.017Z,28.61
2023-05-21T10:21:35.658Z,29.04
2023-05-21T10:24:04.255Z,29.32
2023-05-21T10:26:31.315Z,29.81
2023-05-21T10:29:00.355Z,29.65
2023-05-21T10:31:27.860Z,30.03
2023-05-21T10:33:55.568Z,29.85
2023-05-21T10:36:25.616Z,30.33
2023-05-21T10:38:53.282Z,31.06
2023-05-21T10:41:21.843Z,30.69
2023-05-21T10:44:27.626Z,30.24
2023-05-21T10:47:33.949Z,30.38
2023-05-21T10:51:01.593Z,30.48
2023-05-21T10:53:34.125Z,30.66
2023-05-21T10:56:25.308Z,30.39
2023-05-21T10:59:12.511Z,31.27
2023-05-21T11:01:41.408Z,31.19
2023-05-21T11:04:08.619Z,31.15
2023-05-21T11:06:35.659Z,31.57
2023-05-21T11:09:15.047Z,31.89
2023-05-21T11:11:52.882Z,31.93
2023-05-21T11:14:42.940Z,31.63
2023-05-21T11:17:17.496Z,31.67
2023-05-21T11:19:47.943Z,31.96
2023-05-21T11:22:27.714Z,31.81
2023-05-21T11:24:57.829Z,31.97
2023-05-21T11:27:38.017Z,31.82
2023-05-21T11:30:08.924Z,31.67
2023-05-21T11:32:40.349Z,32.02
2023-05-21T11:35:08.063Z,32.08
2023-05-21T11:37:35.282Z,32.12
2023-05-21T11:40:26.219Z,32.52
2023-05-21T11:42:55.636Z,31.69
2023-05-21T11:45:27.712Z,31.43
2023-05-21T11:47:56.173Z,31.46
2023-05-21T11:50:23.199Z,31.54
2023-05-21T11:52:51.031Z,31.71
2023-05-21T11:55:23.814Z,32.01
2023-05-21T11:57:54.146Z,32.04
2023-05-21T12:00:21.692Z,32.00
2023-05-21T12:02:52.688Z,31.94
2023-05-21T12:05:20.582Z,32.22
2023-05-21T12:07:50.183Z,32.37
2023-05-21T12:10:20.946Z,32.32
2023-05-21T12:12:55.645Z,32.47
2023-05-21T12:15:25.270Z,32.99
2023-05-21T12:17:55.461Z,32.67
2023-05-21T12:20:23.262Z,32.78
2023-05-21T12:22:50.431Z,32.44
2023-05-21T12:25:21.239Z,32.98
2023-05-21T12:27:52.488Z,33.16
2023-05-21T12:30:20.647Z,32.93
2023-05-21T12:32:48.935Z,33.40
2023-05-21T12:35:24.016Z,33.88
2023-05-21T12:37:51.753Z,33.47
2023-05-21T12:40:18.998Z,33.13
2023-05-21T12:42:46.043Z,32.67
2023-05-21T12:45:13.531Z,32.82
2023-05-21T12:47:40.519Z,33.50
2023-05-21T12:50:14.060Z,32.80
2023-05-21T12:52:44.301Z,33.81
2023-05-21T12:55:15.014Z,34.03
2023-05-21T12:57:43.812Z,33.19
2023-05-21T13:00:11.642Z,33.52
2023-05-21T13:02:44.172Z,33.89
2023-05-21T13:05:18.304Z,33.83
2023-05-21T13:07:48.705Z,34.82
2023-05-21T13:10:16.850Z,34.80
2023-05-21T13:12:44.986Z,34.48
2023-05-21T13:15:12.538Z,33.92
2023-05-21T13:17:39.495Z,33.89
2023-05-21T13:20:21.432Z,33.55
2023-05-21T13:22:51.618Z,33.71
2023-05-21T13:25:22.163Z,33.90
2023-05-21T13:27:51.840Z,34.05
2023-05-21T13:30:19.812Z,32.32
2023-05-21T13:32:47.004Z,32.30
2023-05-21T13:35:16.328Z,33.06
2023-05-21T13:37:43.298Z,33.54
2023-05-21T13:40:14.407Z,33.01
2023-05-21T13:42:42.164Z,33.21
2023-05-21T13:45:11.790Z,33.21
2023-05-21T13:47:40.474Z,32.99
2023-05-21T13:50:09.200Z,33.46
2023-05-21T13:52:36.936Z,33.33
2023-05-21T13:55:04.261Z,33.24
2023-05-21T13:57:31.823Z,34.11
2023-05-21T13:59:59.535Z,33.51
2023-05-21T14:02:26.547Z,33.29
2023-05-21T14:04:53.748Z,32.89
2023-05-21T14:07:21.517Z,33.43
2023-05-21T14:09:48.874Z,33.49
2023-05-21T14:12:16.865Z,33.68
2023-05-21T14:14:43.851Z,33.47
2023-05-21T14:17:10.698Z,34.08
2023-05-21T14:19:37.627Z,34.48
2023-05-21T14:22:04.738Z,34.07
2023-05-21T14:24:31.611Z,34.83
2023-05-21T14:26:58.497Z,33.93
2023-05-21T14:29:25.502Z,33.69
2023-05-21T14:31:52.476Z,34.09
2023-05-21T14:34:19.457Z,34.29
2023-05-21T14:36:46.496Z,33.35
2023-05-21T14:39:13.397Z,33.97
2023-05-21T14:41:40.406Z,33.82
2023-05-21T14:44:07.382Z,33.35
2023-05-21T14:46:34.420Z,33.02
2023-05-21T14:49:01.432Z,33.20
2023-05-21T14:51:28.366Z,32.99
2023-05-21T14:53:57.496Z,32.84
2023-05-21T14:56:27.232Z,32.52
2023-05-21T14:58:54.614Z,32.43
2023-05-21T15:01:21.821Z,32.70
2023-05-21T15:03:49.027Z,32.35
2023-05-21T15:06:16.031Z,32.87
2023-05-21T15:08:42.899Z,33.03
2023-05-21T15:11:10.062Z,33.09
2023-05-21T15:13:37.737Z,32.32
2023-05-21T15:16:04.880Z,32.28
2023-05-21T15:18:31.771Z,32.96
2023-05-21T15:20:59.136Z,33.54
2023-05-21T15:23:25.981Z,33.74
2023-05-21T15:25:52.960Z,33.74
2023-05-21T15:28:20.116Z,33.31
2023-05-21T15:30:46.988Z,33.89
2023-05-21T15:33:14.026Z,33.86
2023-05-21T15:35:41.597Z,33.78
2023-05-21T15:38:08.773Z,34.09
2023-05-21T15:40:35.693Z,34.23
2023-05-21T15:43:02.744Z,34.01
2023-05-21T15:45:29.619Z,33.97
2023-05-21T15:47:56.491Z,34.14
2023-05-21T15:50:23.443Z,33.76
2023-05-21T15:52:53.004Z,33.27
2023-05-21T15:55:20.479Z,33.06
2023-05-21T15:57:47.506Z,32.93
2023-05-21T16:00:14.836Z,32.62
2023-05-21T16:02:42.002Z,32.64
2023-05-21T16:05:09.596Z,32.02
2023-05-21T16:07:38.127Z,32.03
2023-05-21T16:10:07.929Z,31.89
2023-05-21T16:12:34.797Z,32.17
2023-05-21T16:15:01.676Z,31.91
2023-05-21T16:17:29.236Z,31.54
2023-05-21T16:19:56.088Z,31.58
2023-05-21T16:22:23.900Z,31.43
2023-05-21T16:24:50.857Z,31.25
2023-05-21T16:27:17.804Z,31.18
2023-05-21T16:29:45.029Z,30.94
2023-05-21T16:32:13.845Z,30.78
2023-05-21T16:34:41.080Z,30.48
2023-05-21T16:37:09.609Z,30.39
2023-05-21T16:39:36.753Z,30.50
2023-05-21T16:42:03.831Z,30.26
2023-05-21T16:44:32.003Z,30.21
2023-05-21T16:46:59.953Z,30.11
2023-05-21T16:49:27.909Z,29.67
2023-05-21T16:51:54.983Z,29.79
2023-05-21T16:54:22.171Z,29.56
2023-05-21T16:56:49.073Z,29.73
2023-05-21T16:59:16.142Z,29.65
2023-05-21T17:01:43.134Z,29.57
2023-05-21T17:04:10.883Z,29.53
2023-05-21T17:06:37.833Z,29.44
2023-05-21T17:09:04.771Z,29.16
2023-05-21T17:11:31.681Z,29.19
2023-05-21T17:13:58.732Z,29.28
2023-05-21T17:16:25.665Z,29.18
2023-05-21T17:18:52.691Z,28.84
2023-05-21T17:21:19.835Z,28.86
2023-05-21T17:23:46.773Z,29.04
2023-05-21T17:26:13.965Z,29.05
2023-05-21T17:28:40.980Z,28.82
2023-05-21T17:31:08.783Z,28.68
2023-05-21T17:33:37.429Z,28.65
2023-05-21T17:36:04.641Z,28.52
2023-05-21T17:38:31.526Z,28.29
2023-05-21T17:40:59.163Z,28.15
2023-05-21T17:43:27.562Z,28.02
2023-05-21T17:45:54.434Z,27.91
2023-05-21T17:48:21.538Z,27.70
2023-05-21T17:50:48.605Z,27.53
2023-05-21T17:53:16.278Z,27.56
2023-05-21T17:55:43.212Z,27.55
2023-05-21T17:58:10.180Z,27.47
2023-05-21T18:00:37.183Z,26.91
2023-05-21T18:03:04.440Z,27.08
2023-05-21T18:05:31.464Z,27.00
2023-05-21T18:08:01.145Z,26.89
2023-05-21T18:10:28.237Z,26.75
2023-05-21T18:12:55.358Z,26.55
2023-05-21T18:15:22.288Z,26.26
2023-05-21T18:17:49.182Z,26.29
2023-05-21T18:20:16.172Z,26.11
2023-05-21T18:22:44.756Z,25.76
2023-05-21T18:25:11.656Z,25.84
2023-05-21T18:27:38.525Z,25.80
2023-05-21T18:30:06.893Z,25.68
2023-05-21T18:32:34.673Z,25.48
2023-05-21T18:35:01.597Z,25.40
2023-05-21T18:37:29.172Z,25.22
2023-05-21T18:39:56.081Z,25.26
2023-05-21T18:42:23.086Z,25.06
2023-05-21T18:44:52.825Z,25.08
2023-05-21T18:47:19.677Z,24.99
2023-05-21T18:49:46.552Z,24.94
2023-05-21T18:52:14.054Z,24.85
2023-05-21T18:54:41.167Z,24.74
2023-05-21T18:57:08.056Z,24.49
2023-05-21T18:59:35.010Z,24.32
2023-05-21T19:02:03.332Z,24.42
2023-05-21T19:04:30.895Z,24.44
2023-05-21T19:06:57.770Z,24.40
2023-05-21T19:09:24.665Z,24.55
2023-05-21T19:11:51.727Z,24.53
2023-05-21T19:14:20.272Z,24.54
2023-05-21T19:16:47.359Z,24.33
2023-05-21T19:19:14.277Z,24.35
2023-05-21T19:21:41.400Z,24.26
2023-05-21T19:24:08.355Z,24.25
2023-05-21T19:26:35.252Z,24.24
2023-05-21T19:29:02.143Z,24.32
2023-05-21T19:31:29.004Z,24.32
2023-05-21T19:33:56.044Z,24.19
2023-05-21T19:36:24.881Z,24.15
2023-05-21T19:38:51.765Z,24.22
2023-05-21T19:41:20.103Z,24.27
2023-05-21T19:43:47.403Z,24.19
2023-05-21T19:46:18.149Z,24.06
2023-05-21T19:48:46.867Z,24.11
2023-05-21T19:51:13.747Z,23.95
2023-05-21T19:53:40.752Z,23.88
2023-05-21T19:56:07.949Z,23.77
2023-05-21T19:58:34.913Z,23.74
2023-05-21T20:01:03.451Z,23.66
2023-05-21T20:03:35.696Z,23.62
2023-05-21T20:06:03.524Z,23.69
2023-05-21T20:08:30.923Z,23.72
2023-05-21T20:10:57.779Z,23.61
2023-05-21T20:13:24.828Z,23.56
2023-05-21T20:15:51.754Z,23.51
2023-05-21T20:18:21.337Z,23.43
2023-05-21T20:20:49.120Z,23.44
2023-05-21T20:23:15.956Z,23.40
2023-05-21T20:25:42.899Z,23.40
2023-05-21T20:28:09.860Z,23.28
2023-05-21T20:30:59.002Z,23.06
2023-05-21T20:33:31.599Z,23.07
2023-05-21T20:35:58.923Z,22.95
2023-05-21T20:38:26.089Z,22.90
2023-05-21T20:40:56.678Z,22.80
2023-05-21T20:43:24.410Z,22.67
2023-05-21T20:45:59.386Z,22.72
2023-05-21T20:48:31.916Z,22.67
2023-05-21T20:51:00.051Z,22.59
2023-05-21T20:53:27.232Z,22.52
2023-05-21T20:55:54.819Z,22.55
2023-05-21T20:58:23.973Z,22.50
2023-05-21T21:00:51.123Z,22.50
2023-05-21T21:03:18.804Z,22.37
2023-05-21T21:05:45.769Z,22.32
2023-05-21T21:08:12.750Z,22.34
2023-05-21T21:10:42.265Z,22.29
2023-05-21T21:13:09.204Z,22.02
2023-05-21T21:15:36.362Z,22.12
2023-05-21T21:18:03.513Z,22.12
2023-05-21T21:20:30.432Z,22.00
2023-05-21T21:22:57.294Z,22.14
2023-05-21T21:25:24.323Z,22.03
2023-05-21T21:27:51.146Z,22.05
2023-05-21T21:30:18.049Z,21.98
2023-05-21T21:32:47.431Z,21.98
2023-05-21T21:35:14.416Z,21.85
2023-05-21T21:37:41.293Z,21.98
2023-05-21T21:40:09.129Z,21.88
2023-05-21T21:42:36.398Z,21.78
2023-05-21T21:45:04.705Z,21.81
2023-05-21T21:47:31.730Z,21.90
2023-05-21T21:49:58.758Z,21.91
2023-05-21T21:52:28.661Z,21.80
2023-05-21T21:54:56.672Z,21.87
2023-05-21T21:57:24.252Z,21.88
2023-05-21T21:59:51.135Z,21.82
2023-05-21T22:02:18.303Z,21.78
2023-05-21T22:04:45.470Z,21.76
2023-05-21T22:07:18.229Z,21.68
2023-05-21T22:09:45.805Z,21.48
2023-05-21T22:12:13.227Z,21.50
2023-05-21T22:14:40.193Z,21.38
2023-05-21T22:17:08.516Z,21.32
2023-05-21T22:19:35.887Z,21.23
2023-05-21T22:22:04.119Z,21.24
2023-05-21T22:24:32.549Z,21.13
2023-05-21T22:26:59.954Z,21.15
2023-05-21T22:29:26.824Z,21.15
2023-05-21T22:31:53.700Z,21.06
2023-05-21T22:34:20.600Z,21.01
2023-05-21T22:36:47.500Z,21.08
2023-05-21T22:39:14.661Z,21.03
2023-05-21T22:41:42.013Z,20.92
2023-05-21T22:44:09.093Z,20.85
2023-05-21T22:46:36.005Z,20.89
2023-05-21T22:49:03.023Z,20.88
2023-05-21T22:51:34.445Z,20.76
2023-05-21T22:54:01.731Z,20.86
2023-05-21T22:56:28.977Z,20.83
2023-05-21T22:58:56.340Z,20.79
2023-05-21T23:01:23.456Z,20.71
2023-05-21T23:03:51.751Z,20.72
2023-05-21T23:06:18.744Z,20.67
2023-05-21T23:08:45.852Z,20.62
2023-05-21T23:11:12.789Z,20.56
2023-05-21T23:13:39.666Z,20.54
2023-05-21T23:16:07.391Z,20.43
2023-05-21T23:18:35.529Z,20.50
2023-05-21T23:21:02.568Z,20.40
2023-05-21T23:23:29.644Z,20.44
2023-05-21T23:25:58.738Z,20.35
2023-05-21T23:28:25.917Z,20.37
2023-05-21T23:30:53.074Z,20.39
2023-05-21T23:33:20.323Z,20.29
2023-05-21T23:35:47.272Z,20.37
2023-05-21T23:38:14.329Z,20.29
2023-05-21T23:40:41.762Z,20.27
2023-05-21T23:43:08.638Z,20.21
2023-05-21T23:45:35.622Z,20.19
2023-05-21T23:48:02.612Z,20.15
2023-05-21T23:50:29.581Z,20.08
2023-05-21T23:52:56.762Z,20.09
2023-05-21T23:55:23.709Z,20.08
2023-05-21T23:57:50.556Z,20.00
